sensor_id;sensor_type;location;lat;lon;timestamp;P1;durP1;ratioP1;P2;durP2;ratioP2
71572;SDS011;59408;51.032;9.410;2023-09-07T09:34:43;8.15;;;4.93;;
71572;SDS011;59408;51.032;9.410;2023-09-07T09:37:13;7.95;;;4.63;;
71572;SDS011;59408;51.032;9.410;2023-09-07T09:39:40;7.60;;;4.70;;
71572;SDS011;59408;51.032;9.410;2023-09-07T09:42:08;8.07;;;4.35;;
71572;SDS011;59408;51.032;9.410;2023-09-07T09:44:35;6.80;;;4.45;;
71572;SDS011;59408;51.032;9.410;2023-09-07T09:47:02;7.28;;;5.05;;
71572;SDS011;59408;51.032;9.410;2023-09-07T09:49:29;7.95;;;4.43;;
71572;SDS011;59408;51.032;9.410;2023-09-07T09:51:58;7.83;;;4.17;;
71572;SDS011;59408;51.032;9.410;2023-09-07T09:54:26;7.35;;;4.40;;
71572;SDS011;59408;51.032;9.410;2023-09-07T09:56:53;6.90;;;5.05;;
71572;SDS011;59408;51.032;9.410;2023-09-07T09:59:20;7.05;;;4.40;;
71572;SDS011;59408;51.032;9.410;2023-09-07T10:01:47;7.10;;;4.10;;
71572;SDS011;59408;51.032;9.410;2023-09-07T10:04:15;7.00;;;4.70;;
71572;SDS011;59408;51.032;9.410;2023-09-07T10:06:50;6.70;;;4.55;;
71572;SDS011;59408;51.032;9.410;2023-09-07T10:09:20;6.95;;;4.43;;
71572;SDS011;59408;51.032;9.410;2023-09-07T10:11:51;6.18;;;4.03;;
71572;SDS011;59408;51.032;9.410;2023-09-07T10:14:18;6.88;;;4.20;;
71572;SDS011;59408;51.032;9.410;2023-09-07T10:16:45;7.77;;;4.50;;
71572;SDS011;59408;51.032;9.410;2023-09-07T10:19:16;7.32;;;4.70;;
71572;SDS011;59408;51.032;9.410;2023-09-07T10:21:43;7.78;;;4.50;;
71572;SDS011;59408;51.032;9.410;2023-09-07T10:24:10;9.10;;;4.88;;
71572;SDS011;59408;51.032;9.410;2023-09-07T10:26:38;8.43;;;4.60;;
71572;SDS011;59408;51.032;9.410;2023-09-07T10:29:04;7.73;;;4.27;;
71572;SDS011;59408;51.032;9.410;2023-09-07T10:31:31;6.68;;;4.47;;
71572;SDS011;59408;51.032;9.410;2023-09-07T10:34:17;9.07;;;4.85;;
71572;SDS011;59408;51.032;9.410;2023-09-07T10:36:44;7.93;;;4.57;;
71572;SDS011;59408;51.032;9.410;2023-09-07T10:39:11;6.32;;;4.40;;
71572;SDS011;59408;51.032;9.410;2023-09-07T10:41:43;6.67;;;4.17;;
71572;SDS011;59408;51.032;9.410;2023-09-07T10:44:10;7.10;;;4.18;;
71572;SDS011;59408;51.032;9.410;2023-09-07T10:46:37;6.30;;;4.00;;
71572;SDS011;59408;51.032;9.410;2023-09-07T10:49:05;6.82;;;4.38;;
71572;SDS011;59408;51.032;9.410;2023-09-07T10:51:33;7.18;;;4.20;;
71572;SDS011;59408;51.032;9.410;2023-09-07T10:54:13;7.20;;;4.77;;
71572;SDS011;59408;51.032;9.410;2023-09-07T10:56:40;6.95;;;4.00;;
71572;SDS011;59408;51.032;9.410;2023-09-07T10:59:07;7.60;;;4.60;;
71572;SDS011;59408;51.032;9.410;2023-09-07T11:01:34;6.30;;;4.15;;
71572;SDS011;59408;51.032;9.410;2023-09-07T11:04:00;7.97;;;4.32;;
71572;SDS011;59408;51.032;9.410;2023-09-07T11:06:27;7.13;;;4.00;;
71572;SDS011;59408;51.032;9.410;2023-09-07T11:08:54;6.75;;;3.95;;
71572;SDS011;59408;51.032;9.410;2023-09-07T11:11:20;6.80;;;4.00;;
71572;SDS011;59408;51.032;9.410;2023-09-07T11:13:47;6.78;;;3.92;;
71572;SDS011;59408;51.032;9.410;2023-09-07T11:16:15;7.30;;;4.32;;
71572;SDS011;59408;51.032;9.410;2023-09-07T11:18:43;8.03;;;4.20;;
71572;SDS011;59408;51.032;9.410;2023-09-07T11:21:11;7.72;;;4.10;;
71572;SDS011;59408;51.032;9.410;2023-09-07T11:23:37;7.18;;;3.97;;
71572;SDS011;59408;51.032;9.410;2023-09-07T11:26:04;6.35;;;4.18;;
71572;SDS011;59408;51.032;9.410;2023-09-07T11:28:31;8.07;;;4.38;;
71572;SDS011;59408;51.032;9.410;2023-09-07T11:30:58;8.07;;;4.40;;
71572;SDS011;59408;51.032;9.410;2023-09-07T11:33:26;6.40;;;4.13;;
71572;SDS011;59408;51.032;9.410;2023-09-07T11:35:57;6.63;;;4.07;;
71572;SDS011;59408;51.032;9.410;2023-09-07T11:38:28;6.50;;;4.00;;
71572;SDS011;59408;51.032;9.410;2023-09-07T11:40:56;6.82;;;4.35;;
71572;SDS011;59408;51.032;9.410;2023-09-07T11:43:22;6.63;;;4.50;;
71572;SDS011;59408;51.032;9.410;2023-09-07T11:45:49;7.05;;;4.10;;
71572;SDS011;59408;51.032;9.410;2023-09-07T11:48:16;7.95;;;4.10;;
71572;SDS011;59408;51.032;9.410;2023-09-07T11:50:43;6.80;;;4.00;;
71572;SDS011;59408;51.032;9.410;2023-09-07T11:53:10;6.38;;;4.15;;
71572;SDS011;59408;51.032;9.410;2023-09-07T11:55:36;7.43;;;3.97;;
71572;SDS011;59408;51.032;9.410;2023-09-07T11:58:03;7.50;;;3.85;;
71572;SDS011;59408;51.032;9.410;2023-09-07T12:00:30;6.60;;;4.07;;
71572;SDS011;59408;51.032;9.410;2023-09-07T12:02:57;6.63;;;4.10;;
71572;SDS011;59408;51.032;9.410;2023-09-07T12:05:23;6.53;;;4.10;;
71572;SDS011;59408;51.032;9.410;2023-09-07T12:07:51;7.63;;;4.10;;
71572;SDS011;59408;51.032;9.410;2023-09-07T12:10:18;6.20;;;4.15;;
71572;SDS011;59408;51.032;9.410;2023-09-07T12:12:44;6.57;;;4.10;;
71572;SDS011;59408;51.032;9.410;2023-09-07T12:15:11;8.43;;;4.10;;
71572;SDS011;59408;51.032;9.410;2023-09-07T12:17:37;6.85;;;4.35;;
71572;SDS011;59408;51.032;9.410;2023-09-07T12:20:04;6.00;;;4.00;;
71572;SDS011;59408;51.032;9.410;2023-09-07T12:22:32;7.45;;;4.35;;
71572;SDS011;59408;51.032;9.410;2023-09-07T12:24:59;7.60;;;4.43;;
71572;SDS011;59408;51.032;9.410;2023-09-07T12:27:40;8.02;;;3.97;;
71572;SDS011;59408;51.032;9.410;2023-09-07T12:30:19;7.07;;;4.35;;
71572;SDS011;59408;51.032;9.410;2023-09-07T12:32:47;7.63;;;4.30;;
71572;SDS011;59408;51.032;9.410;2023-09-07T12:35:13;6.97;;;4.60;;
71572;SDS011;59408;51.032;9.410;2023-09-07T12:37:40;6.93;;;4.10;;
71572;SDS011;59408;51.032;9.410;2023-09-07T12:40:09;6.65;;;4.40;;
71572;SDS011;59408;51.032;9.410;2023-09-07T12:42:37;7.95;;;4.28;;
71572;SDS011;59408;51.032;9.410;2023-09-07T12:45:05;7.13;;;4.47;;
71572;SDS011;59408;51.032;9.410;2023-09-07T12:47:32;7.93;;;4.30;;
71572;SDS011;59408;51.032;9.410;2023-09-07T12:50:00;8.00;;;4.57;;
71572;SDS011;59408;51.032;9.410;2023-09-07T12:52:26;7.68;;;4.70;;
71572;SDS011;59408;51.032;9.410;2023-09-07T12:54:53;7.15;;;4.45;;
71572;SDS011;59408;51.032;9.410;2023-09-07T12:57:23;8.50;;;4.10;;
71572;SDS011;59408;51.032;9.410;2023-09-07T12:59:50;6.97;;;4.57;;
71572;SDS011;59408;51.032;9.410;2023-09-07T13:02:16;8.10;;;4.22;;
71572;SDS011;59408;51.032;9.410;2023-09-07T13:04:43;6.68;;;4.53;;
71572;SDS011;59408;51.032;9.410;2023-09-07T13:07:09;6.90;;;4.15;;
71572;SDS011;59408;51.032;9.410;2023-09-07T13:09:36;7.10;;;4.57;;
71572;SDS011;59408;51.032;9.410;2023-09-07T13:12:02;6.85;;;4.00;;
71572;SDS011;59408;51.032;9.410;2023-09-07T13:14:31;6.07;;;4.40;;
71572;SDS011;59408;51.032;9.410;2023-09-07T13:16:59;6.47;;;4.20;;
71572;SDS011;59408;51.032;9.410;2023-09-07T13:19:26;6.95;;;4.60;;
71572;SDS011;59408;51.032;9.410;2023-09-07T13:21:53;6.70;;;4.70;;
71572;SDS011;59408;51.032;9.410;2023-09-07T13:24:19;7.47;;;4.53;;
71572;SDS011;59408;51.032;9.410;2023-09-07T13:26:46;7.00;;;4.75;;
71572;SDS011;59408;51.032;9.410;2023-09-07T13:29:13;7.13;;;4.65;;
71572;SDS011;59408;51.032;9.410;2023-09-07T13:31:41;7.32;;;4.70;;
71572;SDS011;59408;51.032;9.410;2023-09-07T13:34:07;7.63;;;4.73;;
71572;SDS011;59408;51.032;9.410;2023-09-07T13:36:34;7.43;;;4.47;;
71572;SDS011;59408;51.032;9.410;2023-09-07T13:39:00;7.70;;;4.68;;
71572;SDS011;59408;51.032;9.410;2023-09-07T13:41:27;6.60;;;4.60;;
71572;SDS011;59408;51.032;9.410;2023-09-07T13:43:53;8.65;;;4.80;;
71572;SDS011;59408;51.032;9.410;2023-09-07T13:46:19;6.50;;;4.63;;
71572;SDS011;59408;51.032;9.410;2023-09-07T13:48:47;7.72;;;4.63;;
71572;SDS011;59408;51.032;9.410;2023-09-07T13:51:14;6.93;;;4.25;;
71572;SDS011;59408;51.032;9.410;2023-09-07T13:53:40;6.80;;;4.15;;
71572;SDS011;59408;51.032;9.410;2023-09-07T13:56:07;7.88;;;4.35;;
71572;SDS011;59408;51.032;9.410;2023-09-07T13:58:34;6.90;;;4.60;;
71572;SDS011;59408;51.032;9.410;2023-09-07T14:01:00;6.90;;;4.25;;
71572;SDS011;59408;51.032;9.410;2023-09-07T14:03:27;6.85;;;4.43;;
71572;SDS011;59408;51.032;9.410;2023-09-07T14:05:54;8.43;;;4.40;;
71572;SDS011;59408;51.032;9.410;2023-09-07T14:08:21;6.57;;;4.68;;
71572;SDS011;59408;51.032;9.410;2023-09-07T14:10:47;7.80;;;4.77;;
71572;SDS011;59408;51.032;9.410;2023-09-07T14:13:14;7.88;;;4.70;;
71572;SDS011;59408;51.032;9.410;2023-09-07T14:15:40;8.05;;;4.47;;
71572;SDS011;59408;51.032;9.410;2023-09-07T14:18:07;7.50;;;4.75;;
71572;SDS011;59408;51.032;9.410;2023-09-07T14:20:33;9.30;;;5.13;;
71572;SDS011;59408;51.032;9.410;2023-09-07T14:23:01;6.90;;;4.40;;
71572;SDS011;59408;51.032;9.410;2023-09-07T14:25:28;7.53;;;4.88;;
71572;SDS011;59408;51.032;9.410;2023-09-07T14:27:54;9.05;;;4.40;;
71572;SDS011;59408;51.032;9.410;2023-09-07T14:30:21;8.73;;;4.80;;
71572;SDS011;59408;51.032;9.410;2023-09-07T14:32:47;6.90;;;4.95;;
71572;SDS011;59408;51.032;9.410;2023-09-07T14:35:14;10.40;;;5.30;;
71572;SDS011;59408;51.032;9.410;2023-09-07T14:37:40;8.02;;;5.00;;
71572;SDS011;59408;51.032;9.410;2023-09-07T14:40:09;7.53;;;4.82;;
71572;SDS011;59408;51.032;9.410;2023-09-07T14:42:36;8.45;;;4.80;;
71572;SDS011;59408;51.032;9.410;2023-09-07T14:45:02;7.38;;;4.72;;
71572;SDS011;59408;51.032;9.410;2023-09-07T14:47:29;7.07;;;4.70;;
71572;SDS011;59408;51.032;9.410;2023-09-07T14:49:56;8.52;;;5.03;;
71572;SDS011;59408;51.032;9.410;2023-09-07T14:52:23;6.63;;;4.63;;
71572;SDS011;59408;51.032;9.410;2023-09-07T14:54:49;7.35;;;4.60;;
71572;SDS011;59408;51.032;9.410;2023-09-07T14:57:17;7.38;;;4.57;;
71572;SDS011;59408;51.032;9.410;2023-09-07T14:59:45;9.00;;;4.67;;
71572;SDS011;59408;51.032;9.410;2023-09-07T15:02:11;6.78;;;4.47;;
71572;SDS011;59408;51.032;9.410;2023-09-07T15:04:38;8.25;;;5.00;;
71572;SDS011;59408;51.032;9.410;2023-09-07T15:07:04;7.90;;;4.50;;
71572;SDS011;59408;51.032;9.410;2023-09-07T15:09:31;9.88;;;5.07;;
71572;SDS011;59408;51.032;9.410;2023-09-07T15:11:57;7.87;;;5.40;;
71572;SDS011;59408;51.032;9.410;2023-09-07T15:14:25;8.40;;;5.22;;
71572;SDS011;59408;51.032;9.410;2023-09-07T15:16:52;7.95;;;4.97;;
71572;SDS011;59408;51.032;9.410;2023-09-07T15:19:18;7.90;;;5.15;;
71572;SDS011;59408;51.032;9.410;2023-09-07T15:21:45;7.85;;;4.63;;
71572;SDS011;59408;51.032;9.410;2023-09-07T15:24:11;7.37;;;4.90;;
71572;SDS011;59408;51.032;9.410;2023-09-07T15:26:41;8.10;;;4.90;;
71572;SDS011;59408;51.032;9.410;2023-09-07T15:29:08;10.57;;;5.38;;
71572;SDS011;59408;51.032;9.410;2023-09-07T15:31:35;8.45;;;5.20;;
71572;SDS011;59408;51.032;9.410;2023-09-07T15:34:05;9.75;;;4.70;;
71572;SDS011;59408;51.032;9.410;2023-09-07T15:36:31;7.70;;;4.60;;
71572;SDS011;59408;51.032;9.410;2023-09-07T15:38:58;8.35;;;4.55;;
71572;SDS011;59408;51.032;9.410;2023-09-07T15:41:24;7.82;;;5.13;;
71572;SDS011;59408;51.032;9.410;2023-09-07T15:43:51;6.72;;;4.43;;
71572;SDS011;59408;51.032;9.410;2023-09-07T15:46:18;7.07;;;4.88;;
71572;SDS011;59408;51.032;9.410;2023-09-07T15:48:46;7.17;;;5.00;;
71572;SDS011;59408;51.032;9.410;2023-09-07T15:51:12;8.07;;;4.60;;
71572;SDS011;59408;51.032;9.410;2023-09-07T15:53:39;7.22;;;4.72;;
71572;SDS011;59408;51.032;9.410;2023-09-07T15:56:06;8.15;;;4.70;;
71572;SDS011;59408;51.032;9.410;2023-09-07T15:58:32;7.95;;;4.72;;
71572;SDS011;59408;51.032;9.410;2023-09-07T16:00:59;6.10;;;4.43;;
71572;SDS011;59408;51.032;9.410;2023-09-07T16:03:26;7.90;;;4.97;;
71572;SDS011;59408;51.032;9.410;2023-09-07T16:05:54;6.72;;;4.70;;
71572;SDS011;59408;51.032;9.410;2023-09-07T16:08:20;7.72;;;4.90;;
71572;SDS011;59408;51.032;9.410;2023-09-07T16:10:47;7.10;;;4.40;;
71572;SDS011;59408;51.032;9.410;2023-09-07T16:13:13;6.87;;;4.63;;
71572;SDS011;59408;51.032;9.410;2023-09-07T16:15:41;7.95;;;4.45;;
71572;SDS011;59408;51.032;9.410;2023-09-07T16:18:08;7.82;;;5.05;;
71572;SDS011;59408;51.032;9.410;2023-09-07T16:20:35;9.25;;;4.45;;
71572;SDS011;59408;51.032;9.410;2023-09-07T16:23:03;6.88;;;4.55;;
71572;SDS011;59408;51.032;9.410;2023-09-07T16:25:30;8.57;;;4.77;;
71572;SDS011;59408;51.032;9.410;2023-09-07T16:27:56;7.75;;;4.70;;
71572;SDS011;59408;51.032;9.410;2023-09-07T16:30:23;8.50;;;4.25;;
71572;SDS011;59408;51.032;9.410;2023-09-07T16:32:49;7.82;;;4.20;;
71572;SDS011;59408;51.032;9.410;2023-09-07T16:35:17;8.25;;;4.72;;
71572;SDS011;59408;51.032;9.410;2023-09-07T16:37:44;7.93;;;4.47;;
71572;SDS011;59408;51.032;9.410;2023-09-07T16:40:13;6.50;;;4.28;;
71572;SDS011;59408;51.032;9.410;2023-09-07T16:42:39;7.15;;;4.65;;
71572;SDS011;59408;51.032;9.410;2023-09-07T16:45:06;7.05;;;4.57;;
71572;SDS011;59408;51.032;9.410;2023-09-07T16:47:33;6.50;;;4.35;;
71572;SDS011;59408;51.032;9.410;2023-09-07T16:49:59;7.63;;;4.60;;
71572;SDS011;59408;51.032;9.410;2023-09-07T16:52:26;7.80;;;4.38;;
71572;SDS011;59408;51.032;9.410;2023-09-07T16:54:52;8.43;;;4.55;;
71572;SDS011;59408;51.032;9.410;2023-09-07T16:57:20;8.15;;;4.85;;
71572;SDS011;59408;51.032;9.410;2023-09-07T16:59:49;7.22;;;4.40;;
71572;SDS011;59408;51.032;9.410;2023-09-07T17:02:22;7.63;;;4.70;;
71572;SDS011;59408;51.032;9.410;2023-09-07T17:04:49;7.68;;;4.57;;
71572;SDS011;59408;51.032;9.410;2023-09-07T17:07:16;8.57;;;4.43;;
71572;SDS011;59408;51.032;9.410;2023-09-07T17:09:42;9.52;;;4.43;;
71572;SDS011;59408;51.032;9.410;2023-09-07T17:12:08;7.05;;;4.72;;
71572;SDS011;59408;51.032;9.410;2023-09-07T17:14:36;6.70;;;4.40;;
71572;SDS011;59408;51.032;9.410;2023-09-07T17:17:03;8.32;;;4.95;;
71572;SDS011;59408;51.032;9.410;2023-09-07T17:19:30;7.30;;;4.82;;
71572;SDS011;59408;51.032;9.410;2023-09-07T17:21:56;7.50;;;4.90;;
71572;SDS011;59408;51.032;9.410;2023-09-07T17:24:23;8.57;;;5.22;;
71572;SDS011;59408;51.032;9.410;2023-09-07T17:26:50;8.90;;;5.10;;
71572;SDS011;59408;51.032;9.410;2023-09-07T17:29:16;8.43;;;4.78;;
71572;SDS011;59408;51.032;9.410;2023-09-07T17:31:45;8.35;;;4.93;;
71572;SDS011;59408;51.032;9.410;2023-09-07T17:34:11;8.77;;;5.15;;
71572;SDS011;59408;51.032;9.410;2023-09-07T17:36:38;9.13;;;4.72;;
71572;SDS011;59408;51.032;9.410;2023-09-07T17:39:05;7.63;;;4.60;;
71572;SDS011;59408;51.032;9.410;2023-09-07T17:41:32;8.23;;;4.47;;
71572;SDS011;59408;51.032;9.410;2023-09-07T17:43:59;7.95;;;4.82;;
71572;SDS011;59408;51.032;9.410;2023-09-07T17:46:26;8.38;;;5.03;;
71572;SDS011;59408;51.032;9.410;2023-09-07T17:48:54;8.05;;;4.28;;
71572;SDS011;59408;51.032;9.410;2023-09-07T17:51:20;7.80;;;4.70;;
71572;SDS011;59408;51.032;9.410;2023-09-07T17:53:47;9.43;;;4.90;;
71572;SDS011;59408;51.032;9.410;2023-09-07T17:56:14;7.47;;;4.20;;
71572;SDS011;59408;51.032;9.410;2023-09-07T17:58:42;8.15;;;4.82;;
71572;SDS011;59408;51.032;9.410;2023-09-07T18:01:09;9.35;;;5.35;;
71572;SDS011;59408;51.032;9.410;2023-09-07T18:03:37;8.83;;;5.70;;
71572;SDS011;59408;51.032;9.410;2023-09-07T18:06:05;8.25;;;4.97;;
71572;SDS011;59408;51.032;9.410;2023-09-07T18:08:32;9.38;;;5.55;;
71572;SDS011;59408;51.032;9.410;2023-09-07T18:10:59;9.10;;;5.15;;
71572;SDS011;59408;51.032;9.410;2023-09-07T18:13:26;9.55;;;4.93;;
71572;SDS011;59408;51.032;9.410;2023-09-07T18:15:52;8.20;;;5.20;;
71572;SDS011;59408;51.032;9.410;2023-09-07T18:18:19;8.75;;;5.35;;
71572;SDS011;59408;51.032;9.410;2023-09-07T18:20:46;11.07;;;5.10;;
71572;SDS011;59408;51.032;9.410;2023-09-07T18:23:14;8.93;;;5.32;;
71572;SDS011;59408;51.032;9.410;2023-09-07T18:25:41;9.68;;;5.13;;
71572;SDS011;59408;51.032;9.410;2023-09-07T18:28:09;8.60;;;4.90;;
71572;SDS011;59408;51.032;9.410;2023-09-07T18:30:36;8.13;;;5.00;;
71572;SDS011;59408;51.032;9.410;2023-09-07T18:33:02;9.13;;;5.07;;
71572;SDS011;59408;51.032;9.410;2023-09-07T18:35:29;8.90;;;4.95;;
71572;SDS011;59408;51.032;9.410;2023-09-07T18:37:56;7.43;;;4.82;;
71572;SDS011;59408;51.032;9.410;2023-09-07T18:40:24;8.03;;;4.87;;
71572;SDS011;59408;51.032;9.410;2023-09-07T18:42:51;9.82;;;5.32;;
71572;SDS011;59408;51.032;9.410;2023-09-07T18:45:18;8.02;;;5.10;;
71572;SDS011;59408;51.032;9.410;2023-09-07T18:47:44;9.93;;;5.45;;
71572;SDS011;59408;51.032;9.410;2023-09-07T18:50:11;7.82;;;5.00;;
71572;SDS011;59408;51.032;9.410;2023-09-07T18:52:38;8.57;;;5.70;;
71572;SDS011;59408;51.032;9.410;2023-09-07T18:55:05;10.90;;;5.72;;
71572;SDS011;59408;51.032;9.410;2023-09-07T18:57:33;11.55;;;5.47;;
71572;SDS011;59408;51.032;9.410;2023-09-07T19:00:00;9.77;;;5.07;;
71572;SDS011;59408;51.032;9.410;2023-09-07T19:02:26;8.77;;;5.65;;
71572;SDS011;59408;51.032;9.410;2023-09-07T19:04:53;7.93;;;5.20;;
71572;SDS011;59408;51.032;9.410;2023-09-07T19:07:19;8.88;;;5.43;;
71572;SDS011;59408;51.032;9.410;2023-09-07T19:09:46;9.30;;;5.05;;
71572;SDS011;59408;51.032;9.410;2023-09-07T19:12:13;9.70;;;5.13;;
71572;SDS011;59408;51.032;9.410;2023-09-07T19:14:41;10.02;;;5.82;;
71572;SDS011;59408;51.032;9.410;2023-09-07T19:17:07;8.50;;;5.60;;
71572;SDS011;59408;51.032;9.410;2023-09-07T19:19:34;10.40;;;5.30;;
71572;SDS011;59408;51.032;9.410;2023-09-07T19:22:00;10.20;;;5.43;;
71572;SDS011;59408;51.032;9.410;2023-09-07T19:24:27;8.80;;;4.95;;
71572;SDS011;59408;51.032;9.410;2023-09-07T19:26:53;8.27;;;4.82;;
71572;SDS011;59408;51.032;9.410;2023-09-07T19:29:20;10.77;;;4.90;;
71572;SDS011;59408;51.032;9.410;2023-09-07T19:31:49;8.88;;;5.00;;
71572;SDS011;59408;51.032;9.410;2023-09-07T19:34:15;9.05;;;4.70;;
71572;SDS011;59408;51.032;9.410;2023-09-07T19:36:42;8.18;;;5.15;;
71572;SDS011;59408;51.032;9.410;2023-09-07T19:39:09;11.43;;;4.88;;
71572;SDS011;59408;51.032;9.410;2023-09-07T19:41:37;10.23;;;5.10;;
71572;SDS011;59408;51.032;9.410;2023-09-07T19:44:04;9.48;;;5.60;;
71572;SDS011;59408;51.032;9.410;2023-09-07T19:46:31;8.40;;;5.50;;
71572;SDS011;59408;51.032;9.410;2023-09-07T19:48:59;9.93;;;5.53;;
71572;SDS011;59408;51.032;9.410;2023-09-07T19:51:26;11.13;;;5.38;;
71572;SDS011;59408;51.032;9.410;2023-09-07T19:53:52;8.90;;;5.80;;
71572;SDS011;59408;51.032;9.410;2023-09-07T19:56:19;8.20;;;5.57;;
71572;SDS011;59408;51.032;9.410;2023-09-07T19:58:46;9.20;;;5.60;;
71572;SDS011;59408;51.032;9.410;2023-09-07T20:01:14;8.90;;;5.65;;
71572;SDS011;59408;51.032;9.410;2023-09-07T20:03:42;9.90;;;5.75;;
71572;SDS011;59408;51.032;9.410;2023-09-07T20:06:12;9.67;;;6.20;;
71572;SDS011;59408;51.032;9.410;2023-09-07T20:08:39;10.30;;;6.35;;
71572;SDS011;59408;51.032;9.410;2023-09-07T20:11:06;10.43;;;5.82;;
71572;SDS011;59408;51.032;9.410;2023-09-07T20:13:33;10.65;;;6.57;;
71572;SDS011;59408;51.032;9.410;2023-09-07T20:16:00;11.25;;;5.88;;
71572;SDS011;59408;51.032;9.410;2023-09-07T20:18:27;11.10;;;7.10;;
71572;SDS011;59408;51.032;9.410;2023-09-07T20:20:54;11.15;;;6.90;;
71572;SDS011;59408;51.032;9.410;2023-09-07T20:23:22;10.40;;;6.90;;
71572;SDS011;59408;51.032;9.410;2023-09-07T20:25:48;10.05;;;6.40;;
71572;SDS011;59408;51.032;9.410;2023-09-07T20:28:15;11.35;;;6.28;;
71572;SDS011;59408;51.032;9.410;2023-09-07T20:30:41;11.30;;;6.57;;
71572;SDS011;59408;51.032;9.410;2023-09-07T20:33:08;11.43;;;6.18;;
71572;SDS011;59408;51.032;9.410;2023-09-07T20:35:35;10.20;;;6.25;;
71572;SDS011;59408;51.032;9.410;2023-09-07T20:38:02;10.93;;;6.43;;
71572;SDS011;59408;51.032;9.410;2023-09-07T20:40:30;10.77;;;6.43;;
71572;SDS011;59408;51.032;9.410;2023-09-07T20:42:57;11.23;;;6.30;;
71572;SDS011;59408;51.032;9.410;2023-09-07T20:45:23;10.98;;;6.60;;
71572;SDS011;59408;51.032;9.410;2023-09-07T20:47:50;11.80;;;6.30;;
71572;SDS011;59408;51.032;9.410;2023-09-07T20:50:16;11.23;;;6.45;;
71572;SDS011;59408;51.032;9.410;2023-09-07T20:52:43;10.43;;;6.20;;
71572;SDS011;59408;51.032;9.410;2023-09-07T20:55:09;10.83;;;6.40;;
71572;SDS011;59408;51.032;9.410;2023-09-07T20:57:38;10.55;;;6.13;;
71572;SDS011;59408;51.032;9.410;2023-09-07T21:00:05;12.30;;;6.00;;
71572;SDS011;59408;51.032;9.410;2023-09-07T21:02:32;10.05;;;6.15;;
71572;SDS011;59408;51.032;9.410;2023-09-07T21:04:59;9.68;;;5.32;;
71572;SDS011;59408;51.032;9.410;2023-09-07T21:07:25;10.80;;;6.00;;
71572;SDS011;59408;51.032;9.410;2023-09-07T21:09:52;10.18;;;6.03;;
71572;SDS011;59408;51.032;9.410;2023-09-07T21:12:18;11.48;;;5.97;;
71572;SDS011;59408;51.032;9.410;2023-09-07T21:14:46;10.10;;;5.72;;
71572;SDS011;59408;51.032;9.410;2023-09-07T21:17:13;9.65;;;5.97;;
71572;SDS011;59408;51.032;9.410;2023-09-07T21:19:39;10.83;;;5.87;;
71572;SDS011;59408;51.032;9.410;2023-09-07T21:22:06;9.63;;;6.00;;
71572;SDS011;59408;51.032;9.410;2023-09-07T21:24:32;9.95;;;5.40;;
71572;SDS011;59408;51.032;9.410;2023-09-07T21:26:59;10.95;;;5.63;;
71572;SDS011;59408;51.032;9.410;2023-09-07T21:29:26;8.63;;;5.53;;
71572;SDS011;59408;51.032;9.410;2023-09-07T21:31:53;10.40;;;5.67;;
71572;SDS011;59408;51.032;9.410;2023-09-07T21:34:20;10.98;;;5.70;;
71572;SDS011;59408;51.032;9.410;2023-09-07T21:36:47;9.55;;;5.80;;
71572;SDS011;59408;51.032;9.410;2023-09-07T21:39:14;8.80;;;5.20;;
71572;SDS011;59408;51.032;9.410;2023-09-07T21:41:45;10.95;;;5.90;;
71572;SDS011;59408;51.032;9.410;2023-09-07T21:44:13;8.67;;;5.30;;
71572;SDS011;59408;51.032;9.410;2023-09-07T21:46:39;9.48;;;5.53;;
71572;SDS011;59408;51.032;9.410;2023-09-07T21:49:07;9.68;;;5.60;;
71572;SDS011;59408;51.032;9.410;2023-09-07T21:51:34;8.90;;;6.38;;
71572;SDS011;59408;51.032;9.410;2023-09-07T21:54:00;10.57;;;5.93;;
71572;SDS011;59408;51.032;9.410;2023-09-07T21:56:27;11.07;;;5.70;;
71572;SDS011;59408;51.032;9.410;2023-09-07T21:58:53;10.98;;;5.60;;
71572;SDS011;59408;51.032;9.410;2023-09-07T22:01:19;8.23;;;4.97;;
71572;SDS011;59408;51.032;9.410;2023-09-07T22:03:46;10.63;;;5.85;;
71572;SDS011;59408;51.032;9.410;2023-09-07T22:06:14;11.13;;;5.57;;
71572;SDS011;59408;51.032;9.410;2023-09-07T22:08:41;12.87;;;6.13;;
71572;SDS011;59408;51.032;9.410;2023-09-07T22:11:07;9.27;;;5.63;;
71572;SDS011;59408;51.032;9.410;2023-09-07T22:13:34;9.93;;;5.80;;
71572;SDS011;59408;51.032;9.410;2023-09-07T22:16:00;9.30;;;5.68;;
71572;SDS011;59408;51.032;9.410;2023-09-07T22:18:27;8.90;;;5.72;;
71572;SDS011;59408;51.032;9.410;2023-09-07T22:20:54;10.53;;;5.17;;
71572;SDS011;59408;51.032;9.410;2023-09-07T22:23:21;9.52;;;5.68;;
71572;SDS011;59408;51.032;9.410;2023-09-07T22:26:05;9.82;;;5.57;;
71572;SDS011;59408;51.032;9.410;2023-09-07T22:28:32;10.23;;;5.47;;
71572;SDS011;59408;51.032;9.410;2023-09-07T22:30:59;10.40;;;5.65;;
71572;SDS011;59408;51.032;9.410;2023-09-07T22:33:25;10.80;;;5.87;;
71572;SDS011;59408;51.032;9.410;2023-09-07T22:35:52;9.80;;;5.53;;
71572;SDS011;59408;51.032;9.410;2023-09-07T22:38:18;9.15;;;5.28;;
71572;SDS011;59408;51.032;9.410;2023-09-07T22:40:46;9.90;;;5.53;;
71572;SDS011;59408;51.032;9.410;2023-09-07T22:43:13;10.43;;;5.90;;
71572;SDS011;59408;51.032;9.410;2023-09-07T22:45:39;9.63;;;5.47;;
71572;SDS011;59408;51.032;9.410;2023-09-07T22:48:06;8.93;;;5.53;;
71572;SDS011;59408;51.032;9.410;2023-09-07T22:50:32;9.73;;;5.30;;
71572;SDS011;59408;51.032;9.410;2023-09-07T22:52:59;9.88;;;5.38;;
71572;SDS011;59408;51.032;9.410;2023-09-07T22:55:38;9.10;;;5.40;;
71572;SDS011;59408;51.032;9.410;2023-09-07T22:58:07;9.40;;;5.47;;
71572;SDS011;59408;51.032;9.410;2023-09-07T23:00:34;10.13;;;5.47;;
71572;SDS011;59408;51.032;9.410;2023-09-07T23:03:01;10.15;;;5.78;;
71572;SDS011;59408;51.032;9.410;2023-09-07T23:05:27;11.60;;;5.65;;
71572;SDS011;59408;51.032;9.410;2023-09-07T23:07:54;8.95;;;5.10;;
71572;SDS011;59408;51.032;9.410;2023-09-07T23:10:21;10.97;;;5.33;;
71572;SDS011;59408;51.032;9.410;2023-09-07T23:12:47;9.25;;;5.28;;
71572;SDS011;59408;51.032;9.410;2023-09-07T23:15:15;9.15;;;5.22;;
71572;SDS011;59408;51.032;9.410;2023-09-07T23:17:42;9.07;;;5.45;;
71572;SDS011;59408;51.032;9.410;2023-09-07T23:20:09;10.07;;;5.35;;
71572;SDS011;59408;51.032;9.410;2023-09-07T23:22:35;10.07;;;5.50;;
71572;SDS011;59408;51.032;9.410;2023-09-07T23:25:02;9.27;;;4.88;;
71572;SDS011;59408;51.032;9.410;2023-09-07T23:27:29;11.23;;;5.75;;
71572;SDS011;59408;51.032;9.410;2023-09-07T23:29:55;11.10;;;5.07;;
71572;SDS011;59408;51.032;9.410;2023-09-07T23:32:24;8.75;;;5.32;;
71572;SDS011;59408;51.032;9.410;2023-09-07T23:34:50;8.57;;;5.27;;
71572;SDS011;59408;51.032;9.410;2023-09-07T23:37:17;8.57;;;5.63;;
71572;SDS011;59408;51.032;9.410;2023-09-07T23:39:43;8.90;;;5.30;;
71572;SDS011;59408;51.032;9.410;2023-09-07T23:42:10;10.60;;;5.75;;
71572;SDS011;59408;51.032;9.410;2023-09-07T23:44:36;9.40;;;5.40;;
71572;SDS011;59408;51.032;9.410;2023-09-07T23:47:03;8.63;;;5.20;;
71572;SDS011;59408;51.032;9.410;2023-09-07T23:49:31;10.63;;;5.90;;
71572;SDS011;59408;51.032;9.410;2023-09-07T23:51:57;9.35;;;5.45;;
71572;SDS011;59408;51.032;9.410;2023-09-07T23:54:24;10.15;;;5.38;;
71572;SDS011;59408;51.032;9.410;2023-09-07T23:56:50;9.77;;;5.40;;
71572;SDS011;59408;51.032;9.410;2023-09-07T23:59:16;9.40;;;5.53;;
